KPWA/PWA METAR and TAF weather

Enter ICAO airport designator
Station Type Date Time Source
KPWA METAR 2021/01/17 17:53 UTC NOAA

KPWA 171753Z 32020G27KT 10SM CLR 12/M05 A3008 RMK AO2 PK WND 33027/1752 SLP188 T01171050 10117 20022 58003


Station Type Date Time Source
KPWA Decoded METAR 2021/01/17 17:53 UTC NOAA

WILEY POST, OK, United States (KPWA) 35-32N 97-39W 397M
Jan 17, 2021 - 12:53 PM EST / 2021.01.17 1753 UTC
Wind: from the NW (320 degrees) at 23 MPH (20 KT) gusting to 31 MPH (27 KT):0
Visibility: 10 mile(s):0
Sky conditions: clear
Temperature: 53.1 F (11.7 C)
Dew Point: 23.0 F (-5.0 C)
Relative Humidity: 30%
Pressure (altimeter): 30.08 in. Hg (1018 hPa)
Pressure tendency: 0.01 inches (0.3 hPa) lower than three hours ago
ob: KPWA 171753Z 32020G27KT 10SM CLR 12/M05 A3008 RMK AO2 PK WND 33027/1752 SLP188 T01171050 10117 20022 58003
cycle: 18

Station Type Date Time Source
KPWA TAF UTC NOAA

Error!

Example: see airport list